Terminal Aerodrome Forecast
Issued by NWS New Orleans/Baton Rouge, LA

Home | Current Version | Previous Version | Text Only | Print | Product List | Glossary On
Versions: 1 2 3 4 5 6 7 8 9 10 11 12 13 14
000
FTUS44 KLIX 282349
TAFBTR
TAF
KBTR 282349Z 2900/2924 18006KT P6SM FEW015 OVC070
      TEMPO 2903/2905 4SM -SHRA SCT015 BKN040
     FM290500 12006KT P6SM -RA OVC040
      TEMPO 2905/2908 4SM SHRA BKN025
     FM290800 11006KT 4SM SHRA VCTS OVC025CB
     FM291200 11005KT 6SM SHRA VCTS OVC015CB
     FM292200 18008KT P6SM SHRA VCTS OVC035CB=

USA.gov is the U.S. government's official web portal to all federal, state and local government web resources and services.